sensor_id;sensor_type;location;lat;lon;timestamp;pressure;altitude;pressure_sealevel;temperature;humidity
77450;BME280;66536;53.150;18.172;2023-07-20T00:01:32;100616.41;;;15.56;79.66
77450;BME280;66536;53.150;18.172;2023-07-20T00:04:00;100621.34;;;15.55;79.65
77450;BME280;66536;53.150;18.172;2023-07-20T00:06:27;100625.05;;;15.51;80.04
77450;BME280;66536;53.150;18.172;2023-07-20T00:08:54;100634.67;;;15.50;80.52
77450;BME280;66536;53.150;18.172;2023-07-20T00:11:25;100630.13;;;15.50;80.87
77450;BME280;66536;53.150;18.172;2023-07-20T00:13:54;100626.48;;;15.52;81.11
77450;BME280;66536;53.150;18.172;2023-07-20T00:16:21;100622.95;;;15.54;80.87
77450;BME280;66536;53.150;18.172;2023-07-20T00:18:47;100625.73;;;15.58;81.01
77450;BME280;66536;53.150;18.172;2023-07-20T00:21:14;100627.65;;;15.62;81.14
77450;BME280;66536;53.150;18.172;2023-07-20T00:23:42;100630.72;;;15.65;81.04
77450;BME280;66536;53.150;18.172;2023-07-20T00:26:08;100639.70;;;15.66;80.85
77450;BME280;66536;53.150;18.172;2023-07-20T00:28:35;100642.06;;;15.69;80.97
77450;BME280;66536;53.150;18.172;2023-07-20T00:31:02;100637.55;;;15.72;81.02
77450;BME280;66536;53.150;18.172;2023-07-20T00:33:30;100640.90;;;15.76;80.94
77450;BME280;66536;53.150;18.172;2023-07-20T00:35:56;100642.64;;;15.81;80.59
77450;BME280;66536;53.150;18.172;2023-07-20T00:38:23;100643.38;;;15.85;80.80
77450;BME280;66536;53.150;18.172;2023-07-20T00:40:50;100646.38;;;15.91;80.73
77450;BME280;66536;53.150;18.172;2023-07-20T00:43:18;100648.88;;;15.95;80.85
77450;BME280;66536;53.150;18.172;2023-07-20T00:45:48;100652.15;;;15.98;80.67
77450;BME280;66536;53.150;18.172;2023-07-20T00:48:14;100648.75;;;16.02;80.55
77450;BME280;66536;53.150;18.172;2023-07-20T00:50:44;100642.98;;;16.04;80.68
77450;BME280;66536;53.150;18.172;2023-07-20T00:53:11;100637.02;;;16.06;80.65
77450;BME280;66536;53.150;18.172;2023-07-20T00:55:38;100635.40;;;16.07;80.52
77450;BME280;66536;53.150;18.172;2023-07-20T00:58:05;100636.10;;;16.04;80.62
77450;BME280;66536;53.150;18.172;2023-07-20T01:00:31;100637.82;;;16.00;80.52
77450;BME280;66536;53.150;18.172;2023-07-20T01:02:58;100635.16;;;15.96;80.50
77450;BME280;66536;53.150;18.172;2023-07-20T01:05:34;100637.93;;;15.92;80.51
77450;BME280;66536;53.150;18.172;2023-07-20T01:08:10;100637.77;;;15.89;80.60
77450;BME280;66536;53.150;18.172;2023-07-20T01:10:41;100633.80;;;15.84;80.64
77450;BME280;66536;53.150;18.172;2023-07-20T01:13:12;100636.44;;;15.79;80.57
77450;BME280;66536;53.150;18.172;2023-07-20T01:15:40;100639.46;;;15.74;80.39
77450;BME280;66536;53.150;18.172;2023-07-20T01:18:07;100640.72;;;15.71;80.07
77450;BME280;66536;53.150;18.172;2023-07-20T01:20:34;100643.36;;;15.68;80.29
77450;BME280;66536;53.150;18.172;2023-07-20T01:23:22;100639.65;;;15.65;80.20
77450;BME280;66536;53.150;18.172;2023-07-20T01:31:37;100641.38;;;15.58;80.80
77450;BME280;66536;53.150;18.172;2023-07-20T01:34:05;100645.89;;;15.60;80.98
77450;BME280;66536;53.150;18.172;2023-07-20T01:36:36;100643.21;;;15.63;81.08
77450;BME280;66536;53.150;18.172;2023-07-20T01:39:05;100646.74;;;15.66;81.08
77450;BME280;66536;53.150;18.172;2023-07-20T01:41:33;100646.37;;;15.68;81.15
77450;BME280;66536;53.150;18.172;2023-07-20T01:43:59;100642.38;;;15.70;81.33
77450;BME280;66536;53.150;18.172;2023-07-20T01:46:27;100638.80;;;15.72;81.33
77450;BME280;66536;53.150;18.172;2023-07-20T01:48:57;100635.21;;;15.72;81.20
77450;BME280;66536;53.150;18.172;2023-07-20T01:51:23;100636.38;;;15.74;81.25
77450;BME280;66536;53.150;18.172;2023-07-20T01:53:50;100636.95;;;15.75;81.16
77450;BME280;66536;53.150;18.172;2023-07-20T01:56:18;100641.98;;;15.76;81.28
77450;BME280;66536;53.150;18.172;2023-07-20T01:58:45;100646.64;;;15.76;81.06
77450;BME280;66536;53.150;18.172;2023-07-20T02:01:11;100642.43;;;15.75;80.87
77450;BME280;66536;53.150;18.172;2023-07-20T02:03:38;100646.20;;;15.74;81.02
77450;BME280;66536;53.150;18.172;2023-07-20T02:06:05;100650.48;;;15.75;80.98
77450;BME280;66536;53.150;18.172;2023-07-20T02:08:34;100655.80;;;15.78;80.86
77450;BME280;66536;53.150;18.172;2023-07-20T02:11:00;100655.40;;;15.80;80.83
77450;BME280;66536;53.150;18.172;2023-07-20T02:13:27;100658.06;;;15.83;80.72
77450;BME280;66536;53.150;18.172;2023-07-20T02:15:53;100661.34;;;15.86;80.72
77450;BME280;66536;53.150;18.172;2023-07-20T02:18:21;100661.80;;;15.89;80.70
77450;BME280;66536;53.150;18.172;2023-07-20T02:20:48;100660.27;;;15.91;80.48
77450;BME280;66536;53.150;18.172;2023-07-20T02:23:15;100660.95;;;15.93;80.62
77450;BME280;66536;53.150;18.172;2023-07-20T02:25:41;100665.65;;;15.95;80.41
77450;BME280;66536;53.150;18.172;2023-07-20T02:28:08;100661.00;;;15.96;80.54
77450;BME280;66536;53.150;18.172;2023-07-20T02:30:38;100656.95;;;15.97;80.47
77450;BME280;66536;53.150;18.172;2023-07-20T02:33:06;100657.83;;;15.97;80.49
77450;BME280;66536;53.150;18.172;2023-07-20T02:35:33;100660.02;;;15.96;80.39
77450;BME280;66536;53.150;18.172;2023-07-20T02:38:01;100660.94;;;15.94;80.39
77450;BME280;66536;53.150;18.172;2023-07-20T02:40:28;100659.91;;;15.92;80.38
77450;BME280;66536;53.150;18.172;2023-07-20T02:42:55;100651.84;;;15.90;80.25
77450;BME280;66536;53.150;18.172;2023-07-20T02:45:21;100646.30;;;15.90;80.03
77450;BME280;66536;53.150;18.172;2023-07-20T02:47:48;100640.16;;;15.91;79.97
77450;BME280;66536;53.150;18.172;2023-07-20T02:50:16;100640.79;;;15.92;79.61
77450;BME280;66536;53.150;18.172;2023-07-20T02:52:43;100640.40;;;15.93;79.50
77450;BME280;66536;53.150;18.172;2023-07-20T02:55:09;100639.06;;;15.95;78.79
77450;BME280;66536;53.150;18.172;2023-07-20T02:57:37;100639.91;;;15.96;78.50
77450;BME280;66536;53.150;18.172;2023-07-20T03:00:05;100642.10;;;15.96;77.94
77450;BME280;66536;53.150;18.172;2023-07-20T03:02:33;100641.15;;;15.95;77.97
77450;BME280;66536;53.150;18.172;2023-07-20T03:04:59;100643.79;;;15.97;77.68
77450;BME280;66536;53.150;18.172;2023-07-20T03:07:28;100651.25;;;15.97;77.38
77450;BME280;66536;53.150;18.172;2023-07-20T03:09:56;100655.38;;;15.97;77.38
77450;BME280;66536;53.150;18.172;2023-07-20T03:12:23;100652.00;;;15.98;77.71
77450;BME280;66536;53.150;18.172;2023-07-20T03:14:51;100651.73;;;15.98;77.63
77450;BME280;66536;53.150;18.172;2023-07-20T03:17:17;100652.94;;;15.99;77.78
77450;BME280;66536;53.150;18.172;2023-07-20T03:19:45;100648.89;;;16.00;77.82
77450;BME280;66536;53.150;18.172;2023-07-20T03:22:11;100648.42;;;16.00;77.82
77450;BME280;66536;53.150;18.172;2023-07-20T03:24:38;100650.41;;;16.01;77.99
77450;BME280;66536;53.150;18.172;2023-07-20T03:27:05;100648.02;;;16.05;77.96
77450;BME280;66536;53.150;18.172;2023-07-20T03:29:32;100654.80;;;16.09;77.87
77450;BME280;66536;53.150;18.172;2023-07-20T03:32:00;100656.96;;;16.10;77.95
77450;BME280;66536;53.150;18.172;2023-07-20T03:34:26;100657.98;;;16.09;77.87
77450;BME280;66536;53.150;18.172;2023-07-20T03:36:53;100653.73;;;16.06;77.63
77450;BME280;66536;53.150;18.172;2023-07-20T03:39:19;100657.27;;;16.06;77.57
77450;BME280;66536;53.150;18.172;2023-07-20T03:41:46;100659.83;;;16.06;77.30
77450;BME280;66536;53.150;18.172;2023-07-20T03:44:14;100659.73;;;16.07;77.28
77450;BME280;66536;53.150;18.172;2023-07-20T03:46:41;100657.11;;;16.06;77.12
77450;BME280;66536;53.150;18.172;2023-07-20T03:49:08;100651.61;;;16.04;77.20
77450;BME280;66536;53.150;18.172;2023-07-20T03:51:35;100651.92;;;16.04;77.02
77450;BME280;66536;53.150;18.172;2023-07-20T03:54:02;100654.02;;;16.04;77.15
77450;BME280;66536;53.150;18.172;2023-07-20T03:56:29;100661.78;;;16.04;76.96
77450;BME280;66536;53.150;18.172;2023-07-20T03:59:02;100660.69;;;16.03;77.06
77450;BME280;66536;53.150;18.172;2023-07-20T04:01:28;100662.16;;;16.04;77.02
77450;BME280;66536;53.150;18.172;2023-07-20T04:03:55;100658.20;;;16.06;76.93
77450;BME280;66536;53.150;18.172;2023-07-20T04:06:22;100657.80;;;16.07;76.82
77450;BME280;66536;53.150;18.172;2023-07-20T04:08:49;100659.41;;;16.07;76.77
77450;BME280;66536;53.150;18.172;2023-07-20T04:11:17;100662.33;;;16.08;76.85
77450;BME280;66536;53.150;18.172;2023-07-20T04:13:44;100661.40;;;16.16;76.72
77450;BME280;66536;53.150;18.172;2023-07-20T04:16:10;100664.90;;;16.23;76.63
77450;BME280;66536;53.150;18.172;2023-07-20T04:18:37;100664.38;;;16.28;76.41
77450;BME280;66536;53.150;18.172;2023-07-20T04:21:07;100667.41;;;16.36;76.40
77450;BME280;66536;53.150;18.172;2023-07-20T04:23:34;100662.95;;;16.48;76.12
77450;BME280;66536;53.150;18.172;2023-07-20T04:26:02;100661.36;;;16.59;75.69
77450;BME280;66536;53.150;18.172;2023-07-20T04:28:29;100664.62;;;16.66;75.47
77450;BME280;66536;53.150;18.172;2023-07-20T04:31:10;100662.91;;;16.66;75.39
77450;BME280;66536;53.150;18.172;2023-07-20T04:33:39;100667.56;;;16.67;75.11
77450;BME280;66536;53.150;18.172;2023-07-20T04:36:07;100668.76;;;16.67;74.83
77450;BME280;66536;53.150;18.172;2023-07-20T04:38:37;100666.89;;;16.69;75.09
77450;BME280;66536;53.150;18.172;2023-07-20T04:41:12;100662.84;;;16.70;74.58
77450;BME280;66536;53.150;18.172;2023-07-20T04:43:42;100662.02;;;16.73;74.39
77450;BME280;66536;53.150;18.172;2023-07-20T04:46:11;100661.45;;;16.83;74.45
77450;BME280;66536;53.150;18.172;2023-07-20T04:48:38;100662.05;;;16.99;74.05
77450;BME280;66536;53.150;18.172;2023-07-20T04:51:07;100662.30;;;17.15;73.56
77450;BME280;66536;53.150;18.172;2023-07-20T04:53:33;100665.29;;;17.21;73.39
77450;BME280;66536;53.150;18.172;2023-07-20T04:56:00;100668.58;;;17.21;73.14
77450;BME280;66536;53.150;18.172;2023-07-20T04:58:27;100666.73;;;17.25;73.14
77450;BME280;66536;53.150;18.172;2023-07-20T05:00:56;100664.74;;;17.33;72.82
77450;BME280;66536;53.150;18.172;2023-07-20T05:03:24;100662.64;;;17.39;72.67
77450;BME280;66536;53.150;18.172;2023-07-20T05:05:50;100668.17;;;17.47;72.31
77450;BME280;66536;53.150;18.172;2023-07-20T05:08:17;100666.70;;;17.52;72.04
77450;BME280;66536;53.150;18.172;2023-07-20T05:10:45;100665.88;;;17.55;71.65
77450;BME280;66536;53.150;18.172;2023-07-20T05:13:13;100664.58;;;17.56;71.84
77450;BME280;66536;53.150;18.172;2023-07-20T05:15:40;100666.35;;;17.63;71.63
77450;BME280;66536;53.150;18.172;2023-07-20T05:18:13;100668.24;;;17.73;71.47
77450;BME280;66536;53.150;18.172;2023-07-20T05:21:06;100664.18;;;17.86;70.81
77450;BME280;66536;53.150;18.172;2023-07-20T05:23:33;100668.66;;;18.00;70.34
77450;BME280;66536;53.150;18.172;2023-07-20T05:26:01;100668.39;;;18.13;69.77
77450;BME280;66536;53.150;18.172;2023-07-20T05:28:28;100672.56;;;18.19;69.60
77450;BME280;66536;53.150;18.172;2023-07-20T05:30:55;100671.02;;;18.28;69.32
77450;BME280;66536;53.150;18.172;2023-07-20T05:33:23;100673.63;;;18.35;68.59
77450;BME280;66536;53.150;18.172;2023-07-20T05:35:49;100674.62;;;18.35;68.44
77450;BME280;66536;53.150;18.172;2023-07-20T05:38:20;100677.82;;;18.37;68.13
77450;BME280;66536;53.150;18.172;2023-07-20T05:40:47;100678.46;;;18.40;67.39
77450;BME280;66536;53.150;18.172;2023-07-20T05:43:14;100681.97;;;18.46;67.63
77450;BME280;66536;53.150;18.172;2023-07-20T05:45:42;100683.05;;;18.57;67.12
77450;BME280;66536;53.150;18.172;2023-07-20T05:48:16;100681.39;;;18.67;66.89
77450;BME280;66536;53.150;18.172;2023-07-20T05:50:43;100678.27;;;18.80;66.66
77450;BME280;66536;53.150;18.172;2023-07-20T05:53:10;100676.98;;;18.92;66.38
77450;BME280;66536;53.150;18.172;2023-07-20T05:55:36;100674.64;;;19.05;66.16
77450;BME280;66536;53.150;18.172;2023-07-20T05:58:05;100674.80;;;19.22;66.06
77450;BME280;66536;53.150;18.172;2023-07-20T06:00:32;100669.84;;;19.33;65.53
77450;BME280;66536;53.150;18.172;2023-07-20T06:02:59;100668.94;;;19.38;65.19
77450;BME280;66536;53.150;18.172;2023-07-20T06:05:25;100670.41;;;19.43;64.98
77450;BME280;66536;53.150;18.172;2023-07-20T06:07:52;100670.23;;;19.52;64.72
77450;BME280;66536;53.150;18.172;2023-07-20T06:10:21;100674.42;;;19.65;64.23
77450;BME280;66536;53.150;18.172;2023-07-20T06:12:49;100674.52;;;19.88;63.60
77450;BME280;66536;53.150;18.172;2023-07-20T06:15:27;100671.39;;;20.18;63.21
77450;BME280;66536;53.150;18.172;2023-07-20T06:17:55;100671.30;;;20.40;62.52
77450;BME280;66536;53.150;18.172;2023-07-20T06:20:22;100674.34;;;20.53;61.99
77450;BME280;66536;53.150;18.172;2023-07-20T06:22:49;100676.35;;;20.69;61.79
77450;BME280;66536;53.150;18.172;2023-07-20T06:25:16;100671.65;;;20.87;61.18
77450;BME280;66536;53.150;18.172;2023-07-20T06:27:44;100671.41;;;21.03;60.65
77450;BME280;66536;53.150;18.172;2023-07-20T06:30:11;100670.09;;;21.15;60.41
77450;BME280;66536;53.150;18.172;2023-07-20T06:32:41;100667.62;;;21.23;60.04
77450;BME280;66536;53.150;18.172;2023-07-20T06:35:09;100672.75;;;21.20;59.47
77450;BME280;66536;53.150;18.172;2023-07-20T06:37:36;100674.08;;;21.06;59.74
77450;BME280;66536;53.150;18.172;2023-07-20T06:40:03;100676.23;;;21.00;59.73
77450;BME280;66536;53.150;18.172;2023-07-20T06:42:30;100670.07;;;21.14;58.91
77450;BME280;66536;53.150;18.172;2023-07-20T06:44:58;100673.27;;;21.27;58.64
77450;BME280;66536;53.150;18.172;2023-07-20T06:47:26;100676.70;;;21.45;58.34
77450;BME280;66536;53.150;18.172;2023-07-20T06:49:52;100678.84;;;21.67;57.73
77450;BME280;66536;53.150;18.172;2023-07-20T06:52:19;100678.52;;;21.81;57.10
77450;BME280;66536;53.150;18.172;2023-07-20T06:54:45;100681.95;;;21.82;57.10
77450;BME280;66536;53.150;18.172;2023-07-20T06:57:12;100682.48;;;21.77;56.99
77450;BME280;66536;53.150;18.172;2023-07-20T06:59:39;100679.66;;;21.71;57.07
77450;BME280;66536;53.150;18.172;2023-07-20T07:02:05;100682.23;;;21.65;56.77
77450;BME280;66536;53.150;18.172;2023-07-20T07:04:32;100683.41;;;21.63;56.11
77450;BME280;66536;53.150;18.172;2023-07-20T07:07:01;100681.13;;;21.60;56.15
77450;BME280;66536;53.150;18.172;2023-07-20T07:09:31;100677.02;;;21.71;56.06
77450;BME280;66536;53.150;18.172;2023-07-20T07:12:01;100681.06;;;22.00;55.45
77450;BME280;66536;53.150;18.172;2023-07-20T07:14:28;100675.33;;;22.20;54.31
77450;BME280;66536;53.150;18.172;2023-07-20T07:16:55;100681.39;;;22.24;53.80
77450;BME280;66536;53.150;18.172;2023-07-20T07:19:23;100676.66;;;22.35;53.65
77450;BME280;66536;53.150;18.172;2023-07-20T07:21:50;100677.08;;;22.60;53.56
77450;BME280;66536;53.150;18.172;2023-07-20T07:24:17;100674.92;;;22.96;52.81
77450;BME280;66536;53.150;18.172;2023-07-20T07:26:44;100675.14;;;23.32;51.92
77450;BME280;66536;53.150;18.172;2023-07-20T07:29:10;100672.57;;;23.61;51.44
77450;BME280;66536;53.150;18.172;2023-07-20T07:31:39;100676.95;;;23.81;51.04
77450;BME280;66536;53.150;18.172;2023-07-20T07:34:06;100674.61;;;24.05;50.22
77450;BME280;66536;53.150;18.172;2023-07-20T07:36:33;100676.07;;;24.12;49.88
77450;BME280;66536;53.150;18.172;2023-07-20T07:39:00;100678.10;;;24.18;49.55
77450;BME280;66536;53.150;18.172;2023-07-20T07:41:26;100675.56;;;24.31;48.81
77450;BME280;66536;53.150;18.172;2023-07-20T07:43:54;100676.64;;;24.28;49.04
77450;BME280;66536;53.150;18.172;2023-07-20T07:46:21;100680.33;;;24.28;48.71
77450;BME280;66536;53.150;18.172;2023-07-20T07:48:47;100676.31;;;24.38;48.12
77450;BME280;66536;53.150;18.172;2023-07-20T07:51:15;100677.31;;;24.30;47.69
77450;BME280;66536;53.150;18.172;2023-07-20T07:53:42;100678.57;;;24.24;48.00
77450;BME280;66536;53.150;18.172;2023-07-20T07:56:10;100674.16;;;24.46;47.86
77450;BME280;66536;53.150;18.172;2023-07-20T07:58:36;100670.38;;;24.70;46.90
77450;BME280;66536;53.150;18.172;2023-07-20T08:01:04;100675.54;;;24.65;46.84
77450;BME280;66536;53.150;18.172;2023-07-20T08:03:31;100680.30;;;24.56;44.45
77450;BME280;66536;53.150;18.172;2023-07-20T08:05:59;100683.23;;;24.13;44.34
77450;BME280;66536;53.150;18.172;2023-07-20T08:08:26;100684.02;;;23.82;45.23
77450;BME280;66536;53.150;18.172;2023-07-20T08:10:56;100678.79;;;23.79;44.88
77450;BME280;66536;53.150;18.172;2023-07-20T08:13:22;100679.91;;;23.62;44.29
77450;BME280;66536;53.150;18.172;2023-07-20T08:15:56;100683.70;;;23.22;44.67
77450;BME280;66536;53.150;18.172;2023-07-20T08:18:22;100681.92;;;22.87;45.65
77450;BME280;66536;53.150;18.172;2023-07-20T08:20:50;100677.71;;;22.68;45.57
77450;BME280;66536;53.150;18.172;2023-07-20T08:23:17;100678.73;;;22.59;46.04
77450;BME280;66536;53.150;18.172;2023-07-20T08:25:43;100678.32;;;22.81;45.85
77450;BME280;66536;53.150;18.172;2023-07-20T08:28:11;100680.09;;;22.96;45.81
77450;BME280;66536;53.150;18.172;2023-07-20T08:30:44;100677.41;;;22.88;45.85
77450;BME280;66536;53.150;18.172;2023-07-20T08:33:14;100680.66;;;22.90;45.58
77450;BME280;66536;53.150;18.172;2023-07-20T08:35:41;100671.80;;;23.03;45.35
77450;BME280;66536;53.150;18.172;2023-07-20T08:38:08;100675.46;;;23.26;45.09
77450;BME280;66536;53.150;18.172;2023-07-20T08:40:41;100677.75;;;23.64;44.46
77450;BME280;66536;53.150;18.172;2023-07-20T08:43:09;100672.77;;;23.87;43.60
77450;BME280;66536;53.150;18.172;2023-07-20T08:45:39;100677.98;;;23.84;43.47
77450;BME280;66536;53.150;18.172;2023-07-20T08:48:07;100670.30;;;23.67;43.63
77450;BME280;66536;53.150;18.172;2023-07-20T08:50:35;100667.14;;;23.49;43.78
77450;BME280;66536;53.150;18.172;2023-07-20T08:53:02;100670.59;;;23.23;43.68
77450;BME280;66536;53.150;18.172;2023-07-20T08:55:32;100672.74;;;22.94;43.43
77450;BME280;66536;53.150;18.172;2023-07-20T08:58:00;100672.29;;;22.60;43.96
77450;BME280;66536;53.150;18.172;2023-07-20T09:00:29;100673.48;;;22.33;44.66
77450;BME280;66536;53.150;18.172;2023-07-20T09:02:58;100666.92;;;22.38;45.02
77450;BME280;66536;53.150;18.172;2023-07-20T09:05:27;100669.06;;;22.50;44.75
77450;BME280;66536;53.150;18.172;2023-07-20T09:07:54;100660.64;;;22.59;44.82
77450;BME280;66536;53.150;18.172;2023-07-20T09:10:22;100655.66;;;22.81;44.63
77450;BME280;66536;53.150;18.172;2023-07-20T09:12:49;100661.22;;;22.81;44.17
77450;BME280;66536;53.150;18.172;2023-07-20T09:15:21;100657.52;;;22.73;44.38
77450;BME280;66536;53.150;18.172;2023-07-20T09:17:50;100658.52;;;22.75;44.10
77450;BME280;66536;53.150;18.172;2023-07-20T09:20:18;100657.26;;;22.84;44.31
77450;BME280;66536;53.150;18.172;2023-07-20T09:22:45;100654.48;;;23.13;44.01
77450;BME280;66536;53.150;18.172;2023-07-20T09:25:15;100658.45;;;23.64;43.11
77450;BME280;66536;53.150;18.172;2023-07-20T09:27:45;100654.16;;;24.13;41.70
77450;BME280;66536;53.150;18.172;2023-07-20T09:30:15;100650.69;;;24.53;40.68
77450;BME280;66536;53.150;18.172;2023-07-20T09:32:45;100647.45;;;24.74;40.30
77450;BME280;66536;53.150;18.172;2023-07-20T09:35:15;100645.42;;;24.63;40.59
77450;BME280;66536;53.150;18.172;2023-07-20T09:37:47;100641.52;;;24.41;40.00
77450;BME280;66536;53.150;18.172;2023-07-20T09:40:18;100644.85;;;24.17;40.72
77450;BME280;66536;53.150;18.172;2023-07-20T09:42:47;100650.66;;;24.02;40.54
77450;BME280;66536;53.150;18.172;2023-07-20T09:45:17;100647.30;;;23.70;40.74
77450;BME280;66536;53.150;18.172;2023-07-20T09:47:47;100645.93;;;23.35;41.43
77450;BME280;66536;53.150;18.172;2023-07-20T09:50:14;100645.77;;;23.24;41.81
77450;BME280;66536;53.150;18.172;2023-07-20T09:52:41;100649.12;;;23.24;41.92
77450;BME280;66536;53.150;18.172;2023-07-20T09:55:13;100638.75;;;23.28;41.76
77450;BME280;66536;53.150;18.172;2023-07-20T09:57:40;100638.79;;;23.42;40.98
77450;BME280;66536;53.150;18.172;2023-07-20T10:00:07;100639.20;;;23.62;41.02
77450;BME280;66536;53.150;18.172;2023-07-20T10:02:44;100639.25;;;23.87;40.29
77450;BME280;66536;53.150;18.172;2023-07-20T10:05:13;100633.52;;;24.05;40.03
77450;BME280;66536;53.150;18.172;2023-07-20T10:07:50;100619.93;;;24.24;39.79
77450;BME280;66536;53.150;18.172;2023-07-20T10:10:19;100626.11;;;24.41;38.88
77450;BME280;66536;53.150;18.172;2023-07-20T10:12:48;100621.27;;;24.57;38.62
77450;BME280;66536;53.150;18.172;2023-07-20T10:15:22;100628.66;;;24.81;37.96
77450;BME280;66536;53.150;18.172;2023-07-20T10:18:14;100624.52;;;25.07;37.01
77450;BME280;66536;53.150;18.172;2023-07-20T10:20:42;100618.05;;;25.44;37.57
77450;BME280;66536;53.150;18.172;2023-07-20T10:23:10;100607.98;;;25.89;36.53
77450;BME280;66536;53.150;18.172;2023-07-20T10:25:39;100612.85;;;26.02;36.04
77450;BME280;66536;53.150;18.172;2023-07-20T10:28:10;100614.89;;;26.20;35.80
77450;BME280;66536;53.150;18.172;2023-07-20T10:30:37;100611.52;;;26.24;35.48
77450;BME280;66536;53.150;18.172;2023-07-20T10:33:05;100614.92;;;26.14;34.83
77450;BME280;66536;53.150;18.172;2023-07-20T10:35:51;100618.22;;;26.11;33.83
77450;BME280;66536;53.150;18.172;2023-07-20T10:38:18;100618.24;;;26.12;34.01
77450;BME280;66536;53.150;18.172;2023-07-20T10:40:55;100616.06;;;25.91;34.20
77450;BME280;66536;53.150;18.172;2023-07-20T10:43:25;100612.06;;;25.66;34.79
77450;BME280;66536;53.150;18.172;2023-07-20T10:45:53;100610.73;;;25.59;34.86
77450;BME280;66536;53.150;18.172;2023-07-20T10:48:22;100607.03;;;25.60;35.30
77450;BME280;66536;53.150;18.172;2023-07-20T10:53:36;100604.92;;;25.42;35.32
77450;BME280;66536;53.150;18.172;2023-07-20T10:58:41;100609.95;;;25.23;35.60
77450;BME280;66536;53.150;18.172;2023-07-20T11:01:13;100611.02;;;25.15;35.89
77450;BME280;66536;53.150;18.172;2023-07-20T11:03:40;100614.08;;;25.24;35.91
77450;BME280;66536;53.150;18.172;2023-07-20T11:06:29;100613.48;;;25.30;35.78
77450;BME280;66536;53.150;18.172;2023-07-20T11:09:12;100604.98;;;25.25;35.91
77450;BME280;66536;53.150;18.172;2023-07-20T11:11:47;100609.68;;;25.30;35.90
77450;BME280;66536;53.150;18.172;2023-07-20T11:14:23;100608.56;;;25.39;35.52
77450;BME280;66536;53.150;18.172;2023-07-20T11:16:51;100600.64;;;25.37;35.44
77450;BME280;66536;53.150;18.172;2023-07-20T11:19:21;100602.07;;;25.42;35.43
77450;BME280;66536;53.150;18.172;2023-07-20T11:21:53;100605.39;;;25.56;34.78
77450;BME280;66536;53.150;18.172;2023-07-20T11:24:20;100603.48;;;25.53;34.71
77450;BME280;66536;53.150;18.172;2023-07-20T11:26:51;100606.48;;;25.41;35.19
77450;BME280;66536;53.150;18.172;2023-07-20T11:29:20;100603.57;;;25.36;35.29
77450;BME280;66536;53.150;18.172;2023-07-20T11:31:47;100601.71;;;25.34;35.02
77450;BME280;66536;53.150;18.172;2023-07-20T11:34:17;100599.30;;;25.49;35.21
77450;BME280;66536;53.150;18.172;2023-07-20T11:36:47;100594.20;;;25.58;34.88
77450;BME280;66536;53.150;18.172;2023-07-20T11:39:16;100589.31;;;25.62;35.24
77450;BME280;66536;53.150;18.172;2023-07-20T11:41:48;100587.26;;;25.70;35.26
77450;BME280;66536;53.150;18.172;2023-07-20T11:44:17;100589.40;;;25.76;35.26
77450;BME280;66536;53.150;18.172;2023-07-20T11:46:44;100592.81;;;25.90;35.13
77450;BME280;66536;53.150;18.172;2023-07-20T11:49:12;100600.67;;;25.77;35.30
77450;BME280;66536;53.150;18.172;2023-07-20T11:51:39;100638.63;;;25.21;36.88
77450;BME280;66536;53.150;18.172;2023-07-20T11:54:08;100639.21;;;24.29;41.03
77450;BME280;66536;53.150;18.172;2023-07-20T11:56:35;100663.84;;;23.11;44.97
77450;BME280;66536;53.150;18.172;2023-07-20T11:59:02;100678.69;;;22.06;49.00
77450;BME280;66536;53.150;18.172;2023-07-20T12:01:30;100696.48;;;20.96;54.83
77450;BME280;66536;53.150;18.172;2023-07-20T12:04:03;100708.94;;;19.78;62.98
77450;BME280;66536;53.150;18.172;2023-07-20T12:06:30;100711.64;;;18.68;68.01
77450;BME280;66536;53.150;18.172;2023-07-20T12:08:58;100718.23;;;17.66;76.33
77450;BME280;66536;53.150;18.172;2023-07-20T12:11:34;100723.13;;;16.74;82.10
77450;BME280;66536;53.150;18.172;2023-07-20T12:14:03;100733.24;;;15.88;90.97
77450;BME280;66536;53.150;18.172;2023-07-20T12:16:30;100731.10;;;15.47;93.67
77450;BME280;66536;53.150;18.172;2023-07-20T12:19:02;100731.37;;;15.31;94.37
77450;BME280;66536;53.150;18.172;2023-07-20T12:21:30;100726.26;;;15.33;94.98
77450;BME280;66536;53.150;18.172;2023-07-20T12:23:58;100722.30;;;15.45;94.91
77450;BME280;66536;53.150;18.172;2023-07-20T12:26:25;100716.38;;;15.62;94.34
77450;BME280;66536;53.150;18.172;2023-07-20T12:28:52;100714.95;;;15.94;93.19
77450;BME280;66536;53.150;18.172;2023-07-20T12:31:19;100712.46;;;16.23;91.41
77450;BME280;66536;53.150;18.172;2023-07-20T12:33:49;100705.72;;;16.58;91.10
77450;BME280;66536;53.150;18.172;2023-07-20T12:36:16;100713.10;;;16.93;90.68
77450;BME280;66536;53.150;18.172;2023-07-20T12:38:43;100710.70;;;17.03;89.35
77450;BME280;66536;53.150;18.172;2023-07-20T12:41:11;100708.90;;;17.08;88.83
77450;BME280;66536;53.150;18.172;2023-07-20T12:43:41;100702.89;;;17.21;88.77
77450;BME280;66536;53.150;18.172;2023-07-20T12:46:12;100701.58;;;17.33;88.54
77450;BME280;66536;53.150;18.172;2023-07-20T12:48:40;100700.85;;;17.39;88.44
77450;BME280;66536;53.150;18.172;2023-07-20T12:51:09;100696.61;;;17.55;88.67
77450;BME280;66536;53.150;18.172;2023-07-20T12:53:36;100694.19;;;17.76;88.16
77450;BME280;66536;53.150;18.172;2023-07-20T12:56:03;100691.70;;;17.99;87.73
77450;BME280;66536;53.150;18.172;2023-07-20T12:58:32;100698.86;;;18.20;85.94